PINE FLAT DAM (PNF)

Elevation: 970' · KINGS R basin · Operator: US Army Corps of Engineers

Provisional data, subject to change.
Query executed Monday at 22:53:53   clock

Select a sensor type for a plot of data.
Note: Reservoir Flows are daily averages.

Earlier

Date RES ELE    STORAGE    RES CHG    TOC STO    ABV TOC    OUTFLOW    INFLOW    FNF    PPT INC    PPTINC4    TEMP MN    TEMP MX    WINDLEN    EVP PAN   
 FEET   AF   AF   AF   AF   CFS   CFS   CFS   INCHES   INCHES   DEG F   DEG F   MILES   INCHES  
04/24/2016 851.01 501272 4751 944889 -443617 829 3242 2467 0.00 0.00 -- -- 48 0.15
04/25/2016 852.10 505720 4448 948624 -442904 793 3055 2653 0.01 0.01 -- -- 51 0.17
04/26/2016 852.98 509325 3605 912658 -441887 794 2632 3197 0.00 0.00 -- -- 40 0.19
04/27/2016 853.76 512532 3207 914241 -440096 892 2533 4507 0.01 0.00 -- -- 52 0.21
04/28/2016 854.47 515460 2928 916892 -401432 1060 2550 3116 0.00 0.00 -- -- 35 0.12
04/29/2016 855.07 517941 2481 919517 -401576 1155 2432 2924 0.02 0.00 -- -- 51 0.23
04/30/2016 855.64 520303 2362 922355 -402052 1354 2572 3191 0.00 0.00 -- -- 46 0.23
05/01/2016 856.16 522464 2161 922501 -400037 1470 2589 3173 0.00 0.00 -- -- 47 0.25
05/02/2016 856.50 523878 1414 922317 -398439 1503 2248 2699 0.00 0.00 -- -- 60 0.27
05/03/2016 856.94 525712 1834 922229 -396517 1521 2471 3211 0.02 0.01 -- -- 46 0.22
05/04/2016 857.61 528511 2799 922382 -393871 1544 2978 3943 0.00 0.00 -- -- 49 0.19
05/05/2016 858.51 532283 3772 923077 -390794 1530 3444 4680 0.58 0.00 -- -- 33 0.10
05/06/2016 859.21 535227 2944 1000000 -388488 1525 3021 3840 0.32 0.68 -- -- 23 0.09
05/07/2016 859.74 537461 2234 1000000 -386381 1521 2659 3543 0.00 0.21 -- -- 31 0.10
05/08/2016 860.20 539404 1943 1000000 -384645 1520 2515 3081 0.00 0.00 -- -- 38 0.12
05/09/2016 860.73 541647 2243 1000000 -458353 1523 2683 3517 0.04 0.00 -- -- 50 0.24
05/10/2016 861.83 546317 4670 1000000 -453683 1526 3912 5230 0.00 0.00 -- -- 46 0.25
05/11/2016 863.27 552463 6146 1000000 -447537 1555 4686 6177 0.00 0.00 -- -- 43 0.26
05/12/2016 865.00 559893 7430 1000000 -440107 1846 5626 7462 0.02 0.00 -- -- 43 0.28
05/13/2016 867.12 569068 9175 1000000 -430932 1871 6532 8566 0.00 0.00 -- -- 51 0.28
05/14/2016 869.31 578628 9560 1000000 -421372 2002 6853 9056 0.00 0.00 -- -- 54 0.24
05/15/2016 871.27 587254 8626 1000000 -412746 2022 6402 8014 0.00 0.00 -- -- 52 0.24
05/16/2016 873.00 594922 7668 1000000 -405078 2030 5928 7187 0.00 0.00 -- -- 48 0.25
05/17/2016 874.54 601793 6871 965461 -398207 2120 5618 6471 0.01 0.00 -- -- 51 0.26
05/18/2016 875.82 607534 5741 964501 -392466 2150 5080 7083 0.00 0.00 -- -- 52 0.28
05/19/2016 877.33 614344 6810 964971 -350627 2220 5689 6790 0.00 0.00 -- -- 64 0.27
05/20/2016 879.06 622195 7851 965897 -343702 2230 6219 7266 0.00 0.00 -- -- 56 0.24
05/21/2016 879.95 626255 4060 965019 -338764 2231 4307 5063 0.00 0.00 -- -- 58 0.22
05/22/2016 880.46 628587 2332 963221 -334634 2230 3436 4339 0.00 0.00 -- -- 50 0.23
05/23/2016 -- -- -- -- -- -- -- -- -- 0.00 -- -- -- --

Later | Latest

Warning! This data is preliminary and subject to revision.

Show PNF Map | Plot PNF Data | 1 Month PNF Data | Real-Time PNF Data | PNF Info